Time;durP1;ratioP1;P1;durP2;ratioP2;P2;SDS_P1;SDS_P2;PMS_P1;PMS_P2;Temp;Humidity;BMP_temperature;BMP_pressure;BME280_temperature;BME280_humidity;BME280_pressure;Samples;Min_cycle;Max_cycle;Signal;HPM_P1;HPM_P2
2022/10/07 00:00:41;;;;;;;1999.90;999.90;;;9.50;99.90;;;;;;5078365;28;20554;-64
2022/10/07 00:03:07;;;;;;;1999.90;999.90;;;9.50;99.90;;;;;;5091212;28;20077;-63
2022/10/07 00:05:33;;;;;;;1999.90;999.90;;;9.50;99.90;;;;;;5102732;28;20047;-63
2022/10/07 00:07:59;;;;;;;1999.90;999.90;;;9.40;99.90;;;;;;5109453;28;20044;-63
2022/10/07 00:10:25;;;;;;;1999.90;999.90;;;9.40;99.90;;;;;;5107755;28;20046;-63
2022/10/07 00:12:50;;;;;;;1999.90;999.90;;;9.40;99.90;;;;;;5107016;28;20118;-63
2022/10/07 00:15:16;;;;;;;1999.90;999.90;;;9.40;99.90;;;;;;5108967;28;20074;-63
2022/10/07 00:17:42;;;;;;;1999.90;999.90;;;9.40;99.90;;;;;;5098080;28;20043;-63
2022/10/07 00:20:08;;;;;;;1999.90;999.90;;;9.40;99.90;;;;;;5105177;28;20546;-63
2022/10/07 00:22:34;;;;;;;1999.90;999.90;;;9.40;99.90;;;;;;5092888;28;20042;-63
2022/10/07 00:24:59;;;;;;;1999.90;999.90;;;9.40;99.90;;;;;;5119278;28;20047;-64
2022/10/07 00:27:25;;;;;;;1999.90;999.90;;;9.40;99.90;;;;;;5120057;28;20156;-63
2022/10/07 00:29:50;;;;;;;1999.90;999.90;;;9.40;99.90;;;;;;5088971;28;20126;-63
2022/10/07 00:32:16;;;;;;;1999.90;999.90;;;9.40;99.90;;;;;;5118460;28;20042;-63
2022/10/07 00:34:41;;;;;;;1999.90;999.90;;;9.40;99.90;;;;;;5109024;28;20511;-64
2022/10/07 00:37:07;;;;;;;1999.90;999.90;;;9.30;99.90;;;;;;5097996;28;20623;-64
2022/10/07 00:39:32;;;;;;;1999.90;999.90;;;9.30;99.90;;;;;;5095217;28;20136;-63
2022/10/07 00:41:59;;;;;;;1999.90;999.90;;;9.30;99.90;;;;;;5107695;28;20579;-64
2022/10/07 00:44:30;;;;;;;1999.90;999.90;;;9.30;99.90;;;;;;5106786;28;20140;-63
2022/10/07 00:47:04;;;;;;;1999.90;999.90;;;9.30;99.90;;;;;;5107600;28;20051;-64
2022/10/07 00:49:41;;;;;;;1999.90;999.90;;;9.30;99.90;;;;;;5106866;28;20057;-64
2022/10/07 00:52:07;;;;;;;1999.90;999.90;;;9.30;99.90;;;;;;5107734;28;20043;-63
2022/10/07 00:54:33;;;;;;;1999.90;999.90;;;9.30;99.90;;;;;;5095736;28;20501;-63
2022/10/07 00:56:58;;;;;;;1999.90;999.90;;;9.30;99.90;;;;;;5105490;28;20088;-64
2022/10/07 00:59:24;;;;;;;1999.90;999.90;;;9.30;99.90;;;;;;5107872;28;20073;-63
2022/10/07 01:01:50;;;;;;;1999.90;999.90;;;9.30;99.90;;;;;;5107494;28;20130;-63
2022/10/07 01:04:16;;;;;;;1999.90;999.90;;;9.30;99.90;;;;;;5106710;28;20201;-63
2022/10/07 01:06:44;;;;;;;1999.90;999.90;;;9.30;99.90;;;;;;5073919;28;20046;-63
2022/10/07 01:09:11;;;;;;;1999.90;999.90;;;9.30;99.90;;;;;;5092629;28;20473;-63
2022/10/07 01:12:06;;;;;;;1999.90;999.90;;;9.30;99.90;;;;;;5110625;28;20451;-63
2022/10/07 01:14:52;;;;;;;1999.90;999.90;;;9.30;99.90;;;;;;5109688;27;20096;-63
2022/10/07 01:17:30;;;;;;;1999.90;999.90;;;9.30;99.90;;;;;;5108908;28;20468;-63
2022/10/07 01:20:23;;;;;;;1999.90;999.90;;;9.30;99.90;;;;;;5075336;28;20146;-63
2022/10/07 01:22:52;;;;;;;1999.90;999.90;;;9.30;99.90;;;;;;5074764;28;20437;-63
2022/10/07 01:26:03;;;;;;;1999.90;999.90;;;9.30;99.90;;;;;;5090267;28;20289;-64
2022/10/07 01:28:59;;;;;;;1999.90;999.90;;;9.30;99.90;;;;;;5060753;28;20499;-64
2022/10/07 01:31:36;;;;;;;1999.90;999.90;;;9.40;99.90;;;;;;5100708;27;20100;-64
2022/10/07 01:34:04;;;;;;;1999.90;999.90;;;9.30;99.90;;;;;;5104929;28;20044;-63
2022/10/07 01:36:32;;;;;;;1999.90;999.90;;;9.30;99.90;;;;;;5076939;28;20050;-63
2022/10/07 01:39:02;;;;;;;1999.90;999.90;;;9.30;99.90;;;;;;5084671;28;20071;-63
2022/10/07 01:41:29;;;;;;;1999.90;999.90;;;9.30;99.90;;;;;;5104308;28;20046;-64
2022/10/07 01:43:56;;;;;;;1999.90;999.90;;;9.30;99.90;;;;;;5072091;28;20169;-63
2022/10/07 01:46:25;;;;;;;1999.90;999.90;;;9.30;99.90;;;;;;5107579;28;20039;-63
2022/10/07 01:48:52;;;;;;;1999.90;999.90;;;9.30;99.90;;;;;;5104566;27;20067;-63
2022/10/07 01:51:21;;;;;;;1999.90;999.90;;;9.30;99.90;;;;;;5110058;28;20047;-64
2022/10/07 01:54:03;;;;;;;1999.90;999.90;;;9.30;99.90;;;;;;5074973;27;20055;-63
2022/10/07 01:56:28;;;;;;;1999.90;999.90;;;9.30;99.90;;;;;;5103030;28;20420;-63
2022/10/07 01:59:23;;;;;;;1999.90;999.90;;;9.20;99.90;;;;;;5097799;28;20055;-63
2022/10/07 02:02:02;;;;;;;1999.90;999.90;;;9.30;99.90;;;;;;5121093;27;20504;-63
2022/10/07 02:04:43;;;;;;;1999.90;999.90;;;9.30;99.90;;;;;;5111187;27;20583;-63
2022/10/07 02:07:31;;;;;;;1999.90;999.90;;;9.30;99.90;;;;;;5109321;28;20040;-64
2022/10/07 02:10:36;;;;;;;1999.90;999.90;;;9.30;99.90;;;;;;5108696;28;20059;-63
2022/10/07 02:13:11;;;;;;;1999.90;999.90;;;9.30;99.90;;;;;;5108816;28;20047;-63
2022/10/07 02:15:50;;;;;;;1999.90;999.90;;;9.20;99.90;;;;;;5110740;27;20063;-64
2022/10/07 02:18:18;;;;;;;1999.90;999.90;;;9.20;99.90;;;;;;5099241;28;20066;-63
2022/10/07 02:20:47;;;;;;;1999.90;999.90;;;9.20;99.90;;;;;;5103285;28;20044;-63
2022/10/07 02:23:14;;;;;;;1999.90;999.90;;;9.20;99.90;;;;;;5117207;27;20042;-63
2022/10/07 02:25:47;;;;;;;1999.90;999.90;;;9.10;99.90;;;;;;5109283;28;20082;-63
2022/10/07 02:28:14;;;;;;;1999.90;999.90;;;9.10;99.90;;;;;;5109057;28;20401;-64
2022/10/07 02:30:43;;;;;;;1999.90;999.90;;;9.10;99.90;;;;;;5109288;28;20040;-64
2022/10/07 02:33:10;;;;;;;1999.90;999.90;;;9.10;99.90;;;;;;5109076;28;20039;-64
2022/10/07 02:35:55;;;;;;;1999.90;999.90;;;9.00;99.90;;;;;;5090470;27;20044;-63
2022/10/07 02:38:21;;;;;;;1999.90;999.90;;;9.00;99.90;;;;;;5099006;28;20043;-63
2022/10/07 02:41:09;;;;;;;1999.90;999.90;;;8.90;99.90;;;;;;5110203;27;20051;-63
2022/10/07 02:43:56;;;;;;;1999.90;999.90;;;8.90;99.90;;;;;;5120023;27;20071;-63
2022/10/07 02:46:30;;;;;;;1999.90;999.90;;;8.80;99.90;;;;;;5090189;28;20177;-63
2022/10/07 02:49:00;;;;;;;1999.90;999.90;;;8.80;99.90;;;;;;5107277;28;20092;-63
2022/10/07 02:51:33;;;;;;;1999.90;999.90;;;8.80;99.90;;;;;;5108977;28;20047;-64
2022/10/07 02:54:01;;;;;;;1999.90;999.90;;;8.80;99.90;;;;;;5082873;28;20507;-63
2022/10/07 02:56:28;;;;;;;1999.90;999.90;;;8.80;99.90;;;;;;5108623;28;20085;-63
2022/10/07 02:58:54;;;;;;;1999.90;999.90;;;8.70;99.90;;;;;;5090179;28;20048;-63
2022/10/07 03:01:25;;;;;;;1999.90;999.90;;;8.70;99.90;;;;;;5108484;28;20046;-63
2022/10/07 03:03:50;;;;;;;1999.90;999.90;;;8.70;99.90;;;;;;5090305;28;20040;-63
2022/10/07 03:06:21;;;;;;;1999.90;999.90;;;8.70;99.90;;;;;;5088027;28;20051;-63
2022/10/07 03:08:47;;;;;;;1999.90;999.90;;;8.70;99.90;;;;;;5076429;28;20428;-63
2022/10/07 03:11:13;;;;;;;1999.90;999.90;;;8.70;99.90;;;;;;5108722;28;20043;-63
2022/10/07 03:13:38;;;;;;;1999.90;999.90;;;8.70;99.90;;;;;;5092072;28;20078;-63
2022/10/07 03:16:04;;;;;;;1999.90;999.90;;;8.70;99.90;;;;;;5109113;28;20047;-64
2022/10/07 03:18:30;;;;;;;1999.90;999.90;;;8.70;99.90;;;;;;5107385;28;20031;-63
2022/10/07 03:20:59;;;;;;;1999.90;999.90;;;8.70;99.90;;;;;;5108329;28;20042;-63
2022/10/07 03:23:27;;;;;;;1999.90;999.90;;;8.70;99.90;;;;;;5108049;28;20389;-64
2022/10/07 03:25:55;;;;;;;1999.90;999.90;;;8.60;99.90;;;;;;5103499;28;20052;-63
2022/10/07 03:28:22;;;;;;;1999.90;999.90;;;8.60;99.90;;;;;;5080985;28;20044;-63
2022/10/07 03:30:49;;;;;;;1999.90;999.90;;;8.60;99.90;;;;;;5107725;28;20050;-63
2022/10/07 03:33:15;;;;;;;1999.90;999.90;;;8.60;99.90;;;;;;5091856;28;20040;-64
2022/10/07 03:35:41;;;;;;;1999.90;999.90;;;8.60;99.90;;;;;;5107663;28;20050;-64
2022/10/07 03:38:08;;;;;;;1999.90;999.90;;;8.60;99.90;;;;;;5108049;28;20036;-63
2022/10/07 03:40:34;;;;;;;1999.90;999.90;;;8.60;99.90;;;;;;5091165;28;20370;-64
2022/10/07 03:43:01;;;;;;;1999.90;999.90;;;8.60;99.90;;;;;;5104194;28;20130;-64
2022/10/07 03:45:29;;;;;;;1999.90;999.90;;;8.60;99.90;;;;;;5101851;28;20079;-63
2022/10/07 03:47:57;;;;;;;1999.90;999.90;;;8.60;99.90;;;;;;5073169;28;20535;-64
2022/10/07 03:50:24;;;;;;;1999.90;999.90;;;8.60;99.90;;;;;;5108360;28;20031;-63
2022/10/07 03:52:49;;;;;;;1999.90;999.90;;;8.50;99.90;;;;;;5110134;28;20453;-63
2022/10/07 03:55:15;;;;;;;1999.90;999.90;;;8.50;99.90;;;;;;5110499;28;20143;-63
2022/10/07 03:57:51;;;;;;;1999.90;999.90;;;8.50;99.90;;;;;;5095358;28;20401;-63
2022/10/07 04:00:19;;;;;;;1999.90;999.90;;;8.50;99.90;;;;;;5116309;28;20048;-63
2022/10/07 04:02:48;;;;;;;1999.90;999.90;;;8.50;99.90;;;;;;5086206;28;20074;-63
2022/10/07 04:05:19;;;;;;;1999.90;999.90;;;8.50;99.90;;;;;;5084290;28;20043;-63
2022/10/07 04:07:46;;;;;;;1999.90;999.90;;;8.50;99.90;;;;;;5115667;28;20056;-63
2022/10/07 04:10:14;;;;;;;1999.90;999.90;;;8.50;99.90;;;;;;5100427;28;20051;-63
2022/10/07 04:12:40;;;;;;;1999.90;999.90;;;8.50;99.90;;;;;;5099275;28;20431;-63
2022/10/07 04:15:07;;;;;;;1999.90;999.90;;;8.50;99.90;;;;;;5089266;28;20096;-64
2022/10/07 04:17:33;;;;;;;1999.90;999.90;;;8.50;99.90;;;;;;5107401;28;20047;-63
2022/10/07 04:19:58;;;;;;;1999.90;999.90;;;8.60;99.90;;;;;;5086201;28;20408;-63
2022/10/07 04:22:24;;;;;;;1999.90;999.90;;;8.60;99.90;;;;;;5091762;28;20050;-63
2022/10/07 04:27:35;;;;;;;1999.90;999.90;;;8.60;99.90;;;;;;5098050;28;20032;-64
2022/10/07 04:30:02;;;;;;;1999.90;999.90;;;8.60;99.90;;;;;;5105447;28;20777;-63
2022/10/07 04:32:27;;;;;;;1999.90;999.90;;;8.60;99.90;;;;;;5107331;28;20046;-63
2022/10/07 04:34:53;;;;;;;1999.90;999.90;;;8.60;99.90;;;;;;5107895;28;20382;-63
2022/10/07 04:37:18;;;;;;;1999.90;999.90;;;8.60;99.90;;;;;;5107071;28;20473;-63
2022/10/07 04:39:44;;;;;;;1999.90;999.90;;;8.60;99.90;;;;;;5107959;28;20396;-64
2022/10/07 04:43:17;;;;;;;1999.90;999.90;;;8.60;99.90;;;;;;5111770;28;20050;-63
2022/10/07 04:44:58;;;;;;;1999.90;999.90;;;8.60;99.90;;;;;;5107097;28;20052;-64
2022/10/07 04:47:23;;;;;;;1999.90;999.90;;;8.60;99.90;;;;;;5105341;28;20054;-64
2022/10/07 04:49:52;;;;;;;1999.90;999.90;;;8.60;99.90;;;;;;5111092;28;20069;-63
2022/10/07 04:52:19;;;;;;;1999.90;999.90;;;8.60;99.90;;;;;;5111533;28;20537;-64
2022/10/07 04:54:44;;;;;;;1999.90;999.90;;;8.60;99.90;;;;;;5085266;28;20056;-63
2022/10/07 04:57:12;;;;;;;1999.90;999.90;;;8.60;99.90;;;;;;5076101;28;20050;-63
2022/10/07 04:59:38;;;;;;;1999.90;999.90;;;8.60;99.90;;;;;;5091762;28;20055;-63
2022/10/07 05:02:03;;;;;;;1999.90;999.90;;;8.70;99.90;;;;;;5092598;28;20044;-63
2022/10/07 05:04:29;;;;;;;1999.90;999.90;;;8.70;99.90;;;;;;5085734;28;20069;-64
2022/10/07 05:06:54;;;;;;;1999.90;999.90;;;8.70;99.90;;;;;;5097353;28;20061;-64
2022/10/07 05:09:20;;;;;;;1999.90;999.90;;;8.70;99.90;;;;;;5092357;28;20035;-63
2022/10/07 05:11:47;;;;;;;1999.90;999.90;;;8.70;99.90;;;;;;5112393;27;20097;-63
2022/10/07 05:14:12;;;;;;;1999.90;999.90;;;8.70;99.90;;;;;;5110775;28;20089;-64
2022/10/07 05:16:38;;;;;;;1999.90;999.90;;;8.80;99.90;;;;;;5110143;27;20035;-63
2022/10/07 05:19:04;;;;;;;1999.90;999.90;;;8.70;99.90;;;;;;5095945;28;20124;-63
2022/10/07 05:21:29;;;;;;;1999.90;999.90;;;8.80;99.90;;;;;;5092770;27;20039;-63
2022/10/07 05:23:57;;;;;;;1999.90;999.90;;;8.80;99.90;;;;;;5111875;27;20393;-64
2022/10/07 05:26:23;;;;;;;1999.90;999.90;;;8.80;99.90;;;;;;5110838;28;20437;-63
2022/10/07 05:28:48;;;;;;;1999.90;999.90;;;8.80;99.90;;;;;;5090267;28;20090;-63
2022/10/07 05:31:14;;;;;;;1999.90;999.90;;;8.80;99.90;;;;;;5104308;28;20039;-63
2022/10/07 05:33:41;;;;;;;1999.90;999.90;;;8.80;99.90;;;;;;5109905;28;20504;-63
2022/10/07 05:36:08;;;;;;;1999.90;999.90;;;8.90;99.90;;;;;;5109762;28;20043;-63
2022/10/07 05:38:35;;;;;;;1999.90;999.90;;;8.90;99.90;;;;;;5110464;27;20039;-63
2022/10/07 05:41:03;;;;;;;1999.90;999.90;;;8.90;99.90;;;;;;5109352;28;20420;-63
2022/10/07 05:43:31;;;;;;;1999.90;999.90;;;8.90;99.90;;;;;;5098823;28;20063;-63
2022/10/07 05:46:04;;;;;;;1999.90;999.90;;;8.90;99.90;;;;;;5109650;28;20059;-63
2022/10/07 05:48:31;;;;;;;1999.90;999.90;;;9.00;99.90;;;;;;5109907;28;20043;-63
2022/10/07 05:50:58;;;;;;;1999.90;999.90;;;8.90;99.90;;;;;;5109123;27;20122;-64
2022/10/07 05:53:25;;;;;;;1999.90;999.90;;;9.00;99.90;;;;;;5109778;28;20039;-64
2022/10/07 05:55:51;;;;;;;1999.90;999.90;;;9.00;99.90;;;;;;5109845;28;20035;-63
2022/10/07 05:58:17;;;;;;;1999.90;999.90;;;9.00;99.90;;;;;;5109899;28;20039;-64
2022/10/07 06:00:52;;;;;;;1999.90;999.90;;;9.00;99.90;;;;;;5109520;28;20071;-63
2022/10/07 06:03:18;;;;;;;1999.90;999.90;;;9.00;99.90;;;;;;5108915;28;20458;-63
2022/10/07 06:05:45;;;;;;;1999.90;999.90;;;9.00;99.90;;;;;;5109505;28;20516;-63
2022/10/07 06:08:10;;;;;;;1999.90;999.90;;;9.00;99.90;;;;;;5091291;28;20067;-63
2022/10/07 06:13:20;;;;;;;1999.90;999.90;;;9.00;99.90;;;;;;5108910;27;20040;-63
2022/10/07 06:15:45;;;;;;;1999.90;999.90;;;9.00;99.90;;;;;;5091763;28;20046;-63
2022/10/07 06:18:11;;;;;;;1999.90;999.90;;;9.10;99.90;;;;;;5109048;28;20484;-64
2022/10/07 06:20:37;;;;;;;1999.90;999.90;;;9.10;99.90;;;;;;5108769;27;20031;-63
2022/10/07 06:23:02;;;;;;;1999.90;999.90;;;9.20;99.90;;;;;;5091457;28;20039;-63
2022/10/07 06:25:28;;;;;;;1999.90;999.90;;;9.20;99.90;;;;;;5109066;28;20047;-63
2022/10/07 06:27:57;;;;;;;1999.90;999.90;;;9.30;99.90;;;;;;5110030;28;20035;-63
2022/10/07 06:30:24;;;;;;;1999.90;999.90;;;9.30;99.90;;;;;;5091580;28;20694;-63
2022/10/07 06:32:50;;;;;;;1999.90;999.90;;;9.40;99.90;;;;;;5108345;28;20047;-63
2022/10/07 06:35:16;;;;;;;1999.90;999.90;;;9.40;99.90;;;;;;5097828;28;20062;-63
2022/10/07 06:37:41;;;;;;;1999.90;999.90;;;9.50;99.90;;;;;;5117442;27;20035;-63
2022/10/07 06:40:07;;;;;;;1999.90;999.90;;;9.50;99.90;;;;;;5098594;27;20523;-63
2022/10/07 06:42:33;;;;;;;1999.90;999.90;;;9.60;99.90;;;;;;5117038;27;20038;-64
2022/10/07 06:44:58;;;;;;;1999.90;999.90;;;9.60;99.90;;;;;;5107731;28;20047;-63
2022/10/07 06:47:24;;;;;;;1999.90;999.90;;;9.70;99.90;;;;;;5109276;27;20049;-63
2022/10/07 06:49:50;;;;;;;1999.90;999.90;;;9.80;99.90;;;;;;5116180;27;20485;-63
2022/10/07 06:52:16;;;;;;;1999.90;999.90;;;9.90;99.90;;;;;;5097063;28;20051;-64
2022/10/07 06:54:41;;;;;;;1999.90;999.90;;;9.90;99.90;;;;;;5098446;28;20157;-63
2022/10/07 06:57:07;;;;;;;1999.90;999.90;;;10.00;99.90;;;;;;5104274;27;20046;-64
2022/10/07 06:59:32;;;;;;;1999.90;999.90;;;10.10;99.90;;;;;;5078042;28;20135;-63
2022/10/07 07:01:58;;;;;;;1999.90;999.90;;;10.20;99.90;;;;;;5104759;28;20599;-64
2022/10/07 07:04:24;;;;;;;1999.90;999.90;;;10.30;99.90;;;;;;5109472;28;20485;-63
2022/10/07 07:06:50;;;;;;;1999.90;999.90;;;10.30;99.90;;;;;;5091670;28;20048;-63
2022/10/07 07:09:15;;;;;;;1999.90;999.90;;;10.40;99.90;;;;;;5115364;27;20040;-63
2022/10/07 07:11:43;;;;;;;1999.90;999.90;;;10.50;99.90;;;;;;5106605;28;20036;-63
2022/10/07 07:14:10;;;;;;;1999.90;999.90;;;10.50;99.90;;;;;;5098380;28;20047;-63
2022/10/07 07:16:36;;;;;;;1999.90;999.90;;;10.60;99.90;;;;;;5109906;27;20168;-64
2022/10/07 07:19:07;;;;;;;1999.90;999.90;;;10.70;99.90;;;;;;5113000;27;20479;-64
2022/10/07 07:21:34;;;;;;;1999.90;999.90;;;10.70;99.90;;;;;;5100406;28;20054;-63
2022/10/07 07:24:01;;;;;;;1999.90;999.90;;;10.80;99.90;;;;;;5093631;28;20035;-63
2022/10/07 07:26:27;;;;;;;1999.90;999.90;;;10.80;99.90;;;;;;5107494;27;20047;-63
2022/10/07 07:28:58;;;;;;;1999.90;999.90;;;10.90;99.90;;;;;;5108584;28;20044;-64
2022/10/07 07:31:25;;;;;;;1999.90;999.90;;;11.00;99.90;;;;;;5089230;28;20027;-63
2022/10/07 07:33:51;;;;;;;1999.90;999.90;;;11.00;99.90;;;;;;5108295;28;20043;-64
2022/10/07 07:36:21;;;;;;;1999.90;999.90;;;11.10;99.90;;;;;;5107585;28;20067;-64
2022/10/07 07:38:55;;;;;;;1999.90;999.90;;;11.20;99.90;;;;;;5089887;28;20523;-63
2022/10/07 07:41:25;;;;;;;1999.90;999.90;;;11.30;99.90;;;;;;5094445;28;20036;-63
2022/10/07 07:43:53;;;;;;;1999.90;999.90;;;11.30;99.90;;;;;;5108109;28;20130;-64
2022/10/07 07:46:20;;;;;;;1999.90;999.90;;;11.40;99.90;;;;;;5085003;28;20048;-64
2022/10/07 07:48:48;;;;;;;1999.90;999.90;;;11.50;99.90;;;;;;5107721;28;20048;-63
2022/10/07 07:51:16;;;;;;;1999.90;999.90;;;11.50;99.90;;;;;;5126069;27;20043;-64
2022/10/07 07:53:42;;;;;;;1999.90;999.90;;;11.60;99.90;;;;;;5110016;28;20047;-64
2022/10/07 07:56:08;;;;;;;1999.90;999.90;;;11.70;99.90;;;;;;5112320;28;20035;-64
2022/10/07 07:58:33;;;;;;;1999.90;999.90;;;11.80;99.90;;;;;;5128725;28;20046;-63
2022/10/07 08:01:05;;;;;;;1999.90;999.90;;;11.90;99.90;;;;;;5111536;28;20035;-64
2022/10/07 08:03:37;;;;;;;1999.90;999.90;;;12.00;99.90;;;;;;5107659;28;20027;-64
2022/10/07 08:06:05;;;;;;;1999.90;999.90;;;12.10;99.90;;;;;;5089930;28;20105;-63
2022/10/07 08:08:31;;;;;;;1999.90;999.90;;;12.20;99.90;;;;;;5094044;28;20028;-64
2022/10/07 08:11:05;;;;;;;1999.90;999.90;;;12.30;99.90;;;;;;5099692;28;20043;-64
2022/10/07 08:13:31;;;;;;;1999.90;999.90;;;12.40;99.90;;;;;;5089887;28;20054;-64
2022/10/07 08:15:57;;;;;;;1999.90;999.90;;;12.60;99.90;;;;;;5106435;27;20039;-64
2022/10/07 08:18:23;;;;;;;1999.90;999.90;;;12.70;99.90;;;;;;5111657;28;20039;-63
2022/10/07 08:20:59;;;;;;;1999.90;999.90;;;13.00;99.90;;;;;;5103931;27;20513;-64
2022/10/07 08:23:26;;;;;;;1999.90;999.90;;;13.40;99.90;;;;;;5096610;28;20032;-64
2022/10/07 08:25:58;;;;;;;1999.90;999.90;;;13.70;99.90;;;;;;5111782;28;20039;-64
2022/10/07 08:28:25;;;;;;;1999.90;999.90;;;13.90;99.90;;;;;;5111522;28;20077;-64
2022/10/07 08:30:51;;;;;;;1999.90;999.90;;;14.40;99.90;;;;;;5085232;27;20093;-64
2022/10/07 08:33:18;;;;;;;1999.90;999.90;;;15.10;99.90;;;;;;5111316;28;20489;-64
2022/10/07 08:35:49;;;;;;;1999.90;999.90;;;15.60;99.90;;;;;;5100093;28;20086;-64
2022/10/07 08:38:15;;;;;;;1999.90;999.90;;;16.00;99.90;;;;;;5111529;28;20059;-64
2022/10/07 08:40:51;;;;;;;1999.90;999.90;;;16.30;99.90;;;;;;5111260;28;20039;-64
2022/10/07 08:43:20;;;;;;;1999.90;999.90;;;16.80;99.90;;;;;;5111565;28;20085;-64
2022/10/07 08:45:47;;;;;;;1999.90;999.90;;;17.00;99.90;;;;;;5111078;28;20051;-64
2022/10/07 08:48:18;;;;;;;1999.90;999.90;;;17.30;99.90;;;;;;5096850;28;20071;-64
2022/10/07 08:51:12;;;;;;;1999.90;999.90;;;17.40;99.90;;;;;;5082623;28;20572;-64
2022/10/07 08:53:38;;;;;;;1999.90;999.90;;;17.60;99.90;;;;;;5092643;28;20093;-64
2022/10/07 08:56:12;;;;;;;1999.90;999.90;;;17.70;99.90;;;;;;5104857;28;20036;-64
2022/10/07 08:58:57;;;;;;;1999.90;999.90;;;17.90;99.90;;;;;;5101169;28;20039;-64
2022/10/07 09:01:35;;;;;;;1999.90;999.90;;;18.10;99.90;;;;;;5107010;28;20059;-64
2022/10/07 09:04:40;;;;;;;1999.90;999.90;;;18.10;99.90;;;;;;5091420;28;20048;-64
2022/10/07 09:07:13;;;;;;;1999.90;999.90;;;17.90;99.90;;;;;;5100131;28;20451;-64
2022/10/07 09:09:45;;;;;;;1999.90;999.90;;;17.60;99.90;;;;;;5092506;28;20039;-64
2022/10/07 09:12:20;;;;;;;1999.90;999.90;;;17.80;99.90;;;;;;5110850;28;20047;-64
2022/10/07 09:14:49;;;;;;;1999.90;999.90;;;18.00;99.90;;;;;;5095941;28;20300;-64
2022/10/07 09:17:21;;;;;;;1999.90;999.90;;;18.20;99.90;;;;;;5111175;28;20476;-64
2022/10/07 09:19:51;;;;;;;1999.90;999.90;;;18.40;99.90;;;;;;5110822;28;20079;-64
2022/10/07 09:22:28;;;;;;;1999.90;999.90;;;18.50;99.90;;;;;;5099257;28;20054;-64
2022/10/07 09:25:05;;;;;;;1999.90;999.90;;;18.50;99.90;;;;;;5110127;28;20123;-64
2022/10/07 09:27:32;;;;;;;1999.90;999.90;;;18.60;99.90;;;;;;5102716;27;20036;-64
2022/10/07 09:29:57;;;;;;;1999.90;999.90;;;18.60;99.90;;;;;;5107201;28;20036;-64
2022/10/07 09:32:23;;;;;;;1999.90;999.90;;;18.50;99.90;;;;;;5110415;28;20401;-65
2022/10/07 09:34:48;;;;;;;1999.90;999.90;;;18.40;99.90;;;;;;5087384;28;20052;-64
2022/10/07 09:37:24;;;;;;;1999.90;999.90;;;18.40;99.90;;;;;;5091460;28;20052;-64
2022/10/07 09:39:58;;;;;;;1999.90;999.90;;;18.40;99.90;;;;;;5110624;27;20047;-64
2022/10/07 09:42:37;;;;;;;1999.90;999.90;;;18.50;99.90;;;;;;5111303;27;20130;-65
2022/10/07 09:45:26;;;;;;;1999.90;999.90;;;18.40;99.90;;;;;;5100349;27;20166;-64
2022/10/07 09:47:54;;;;;;;1999.90;999.90;;;18.20;99.90;;;;;;5066051;28;20058;-65
2022/10/07 09:50:41;;;;;;;1999.90;999.90;;;18.00;99.90;;;;;;5081720;28;20544;-65
2022/10/07 09:53:21;;;;;;;1999.90;999.90;;;17.90;99.90;;;;;;5108653;28;20107;-64
2022/10/07 09:55:48;;;;;;;1999.90;999.90;;;17.60;99.90;;;;;;5124188;27;20070;-64
2022/10/07 09:58:23;;;;;;;1999.90;999.90;;;17.40;99.90;;;;;;5124886;27;20042;-64
2022/10/07 10:00:51;;;;;;;1999.90;999.90;;;17.50;99.90;;;;;;5103668;27;20893;-65
2022/10/07 10:03:17;;;;;;;1999.90;999.90;;;17.50;99.90;;;;;;5092169;28;20035;-65
2022/10/07 10:06:05;;;;;;;1999.90;999.90;;;17.50;99.90;;;;;;5063678;28;20127;-65
2022/10/07 10:08:36;;;;;;;1999.90;999.90;;;17.50;99.90;;;;;;5097821;28;20035;-64
2022/10/07 10:11:27;;;;;;;1999.90;999.90;;;17.20;99.90;;;;;;5084568;28;20055;-64
2022/10/07 10:13:54;;;;;;;1999.90;999.90;;;16.80;99.90;;;;;;5113424;27;20085;-64
2022/10/07 10:16:39;;;;;;;1999.90;999.90;;;16.60;99.90;;;;;;5103228;28;20040;-64
2022/10/07 10:19:24;;;;;;;1999.90;999.90;;;16.40;99.90;;;;;;5091137;28;20058;-65
2022/10/07 10:21:55;;;;;;;1999.90;999.90;;;16.50;99.90;;;;;;5125499;27;20051;-64
2022/10/07 10:27:32;;;;;;;1999.90;999.90;;;17.10;99.90;;;;;;5027784;28;20046;-64
2022/10/07 10:30:02;;;;;;;1999.90;999.90;;;17.50;99.90;;;;;;5031156;28;20467;-65
2022/10/07 10:33:03;;;;;;;1999.90;999.90;;;17.60;99.90;;;;;;5016799;28;20045;-65
2022/10/07 10:35:33;;;;;;;1999.90;999.90;;;17.80;99.90;;;;;;5000291;28;20045;-65
2022/10/07 10:38:45;;;;;;;1999.90;999.90;;;18.00;99.90;;;;;;5026243;28;20574;-64
2022/10/07 10:41:45;;;;;;;1999.90;999.90;;;18.20;99.90;;;;;;5009275;28;20899;-65
2022/10/07 10:44:23;;;;;;;1999.90;999.90;;;18.30;99.90;;;;;;5030691;28;20372;-65
2022/10/07 10:47:13;;;;;;;1999.90;999.90;;;18.40;99.90;;;;;;5025806;28;20554;-64
2022/10/07 10:50:02;;;;;;;1999.90;999.90;;;18.40;99.90;;;;;;5015456;28;20128;-65
2022/10/07 10:52:43;;;;;;;1999.90;999.90;;;18.30;99.90;;;;;;5001748;28;20391;-65
2022/10/07 10:55:21;;;;;;;1999.90;999.90;;;18.30;99.90;;;;;;5021579;28;20052;-64
2022/10/07 10:58:15;;;;;;;1999.90;999.90;;;18.40;99.90;;;;;;5042586;28;20051;-65
2022/10/07 11:01:10;;;;;;;1999.90;999.90;;;18.50;99.90;;;;;;5102501;28;20044;-65
2022/10/07 11:04:13;;;;;;;1999.90;999.90;;;18.60;99.90;;;;;;5110204;27;20031;-65
2022/10/07 11:06:41;;;;;;;1999.90;999.90;;;18.60;99.90;;;;;;5078581;28;20040;-64
2022/10/07 11:09:37;;;;;;;1999.90;999.90;;;18.60;99.90;;;;;;5108152;28;20043;-65
2022/10/07 11:12:13;;;;;;;1999.90;999.90;;;18.60;99.90;;;;;;5102235;28;20090;-64
2022/10/07 11:14:48;;;;;;;1999.90;999.90;;;18.60;99.90;;;;;;5092890;28;20440;-65
2022/10/07 11:17:15;;;;;;;1999.90;999.90;;;18.60;99.90;;;;;;5096778;28;20048;-64
2022/10/07 11:20:13;;;;;;;1999.90;999.90;;;18.70;99.90;;;;;;5111162;27;20031;-65
2022/10/07 11:22:47;;;;;;;1999.90;999.90;;;18.90;99.90;;;;;;5104747;28;20048;-64
2022/10/07 11:25:22;;;;;;;1999.90;999.90;;;19.00;99.90;;;;;;5092214;28;20097;-65
2022/10/07 11:27:50;;;;;;;1999.90;999.90;;;19.20;99.90;;;;;;5113339;27;20488;-64
2022/10/07 11:30:22;;;;;;;1999.90;999.90;;;19.20;99.90;;;;;;5097574;27;20035;-65
2022/10/07 11:32:59;;;;;;;1999.90;999.90;;;19.30;99.90;;;;;;5093507;28;20119;-64
2022/10/07 11:35:30;;;;;;;1999.90;999.90;;;19.40;99.90;;;;;;5108214;28;20096;-65
2022/10/07 11:38:30;;;;;;;1999.90;999.90;;;19.30;99.90;;;;;;5095198;28;20043;-65
2022/10/07 11:41:03;;;;;;;1999.90;999.90;;;19.10;99.90;;;;;;5080127;28;20055;-65
2022/10/07 11:43:45;;;;;;;1999.90;999.90;;;18.90;99.90;;;;;;5101543;28;20131;-64
2022/10/07 11:46:22;;;;;;;1999.90;999.90;;;19.00;99.90;;;;;;5103591;28;20081;-65
2022/10/07 11:48:59;;;;;;;1999.90;999.90;;;19.10;99.90;;;;;;5107611;28;20039;-65
2022/10/07 11:51:39;;;;;;;1999.90;999.90;;;19.20;99.90;;;;;;5088640;28;20043;-64
2022/10/07 11:54:11;;;;;;;1999.90;999.90;;;19.30;99.90;;;;;;5082969;28;20481;-65
2022/10/07 11:56:45;;;;;;;1999.90;999.90;;;19.30;99.90;;;;;;5060949;28;20048;-65
2022/10/07 11:59:40;;;;;;;1999.90;999.90;;;19.30;99.90;;;;;;5082737;28;20047;-65
2022/10/07 12:02:28;;;;;;;1999.90;999.90;;;19.30;99.90;;;;;;5089660;28;20057;-65
2022/10/07 12:04:54;;;;;;;1999.90;999.90;;;19.00;99.90;;;;;;5106772;28;20404;-65
2022/10/07 12:07:41;;;;;;;1999.90;999.90;;;18.70;99.90;;;;;;5107978;28;20050;-64
2022/10/07 12:10:23;;;;;;;1999.90;999.90;;;18.60;99.90;;;;;;5114001;28;20073;-65
2022/10/07 12:12:49;;;;;;;1999.90;999.90;;;18.40;99.90;;;;;;5108006;28;20098;-65
2022/10/07 12:15:42;;;;;;;1999.90;999.90;;;18.30;99.90;;;;;;5107404;28;20047;-65
2022/10/07 12:18:09;;;;;;;1999.90;999.90;;;18.10;99.90;;;;;;5091298;28;20063;-65
2022/10/07 12:20:50;;;;;;;1999.90;999.90;;;18.00;99.90;;;;;;5108017;28;20096;-65
2022/10/07 12:23:19;;;;;;;1999.90;999.90;;;18.00;99.90;;;;;;5108440;28;20040;-64
2022/10/07 12:25:47;;;;;;;1999.90;999.90;;;18.00;99.90;;;;;;5098834;28;20054;-65
2022/10/07 12:28:33;;;;;;;1999.90;999.90;;;18.00;99.90;;;;;;5075163;28;20526;-65
2022/10/07 12:31:01;;;;;;;1999.90;999.90;;;18.00;99.90;;;;;;5109042;28;20046;-64
2022/10/07 12:33:56;;;;;;;1999.90;999.90;;;18.00;99.90;;;;;;5089165;28;20057;-65